Time;durP1;ratioP1;P1;durP2;ratioP2;P2;SDS_P1;SDS_P2;PMS_P1;PMS_P2;Temp;Humidity;BMP_temperature;BMP_pressure;BME280_temperature;BME280_humidity;BME280_pressure;Samples;Min_cycle;Max_cycle;Signal;HPM_P1;HPM_P2
2023/01/01 00:00:16;;;;;;;66.32;43.05;;;;;;;6.12;100.00;93408.75;2097382;28;20096;-83
2023/01/01 00:01:17;;;;;;;40.03;26.20;;;;;;;6.13;100.00;93400.41;2106282;27;20027;-84
2023/01/01 00:02:18;;;;;;;45.65;30.90;;;;;;;6.19;100.00;93398.13;2105257;28;20539;-84
2023/01/01 00:03:19;;;;;;;15.30;10.38;;;;;;;6.65;100.00;93397.31;2096528;28;20027;-84
2023/01/01 00:04:20;;;;;;;11.73;8.02;;;;;;;6.90;100.00;93395.34;2097219;28;20020;-84
2023/01/01 00:05:21;;;;;;;10.20;7.18;;;;;;;7.35;100.00;93387.56;2114938;27;20063;-85
2023/01/01 00:06:23;;;;;;;13.30;8.55;;;;;;;7.30;100.00;93390.63;2122448;27;20341;-85
2023/01/01 00:07:24;;;;;;;12.88;8.10;;;;;;;7.18;100.00;93388.41;2097481;28;20135;-85
2023/01/01 00:08:25;;;;;;;12.45;7.47;;;;;;;7.13;100.00;93386.16;2097264;28;20031;-85
2023/01/01 00:10:46;;;;;;;6.65;3.75;;;;;;;8.19;100.00;93386.63;2106396;27;20031;-85
2023/01/01 00:11:47;;;;;;;5.88;4.15;;;;;;;8.22;100.00;93383.19;2105484;28;20028;-84
2023/01/01 00:12:48;;;;;;;4.85;3.95;;;;;;;8.14;100.00;93382.47;2113930;28;20514;-84
2023/01/01 00:13:49;;;;;;;7.05;3.35;;;;;;;8.50;100.00;93369.63;2105387;28;20024;-85
2023/01/01 00:14:50;;;;;;;6.50;4.43;;;;;;;8.58;100.00;93384.38;2095096;28;20083;-85
2023/01/01 00:15:51;;;;;;;6.22;3.42;;;;;;;8.56;100.00;93378.72;2088737;28;20017;-84
2023/01/01 00:16:54;;;;;;;5.75;3.00;;;;;;;8.50;100.00;93372.28;2093830;28;20021;-85
2023/01/01 00:17:56;;;;;;;4.07;2.72;;;;;;;9.14;100.00;93372.75;2097353;28;20037;-83
2023/01/01 00:18:57;;;;;;;3.95;2.78;;;;;;;9.13;100.00;93372.00;2098005;28;20032;-84
2023/01/01 00:19:58;;;;;;;4.05;2.40;;;;;;;9.64;100.00;93377.41;2080596;28;20853;-85
2023/01/01 00:21:08;;;;;;;6.38;3.13;;;;;;;9.74;100.00;93369.25;2088517;28;20641;-84
2023/01/01 00:22:14;;;;;;;5.45;2.85;;;;;;;9.55;100.00;93369.91;2099270;28;20020;-85
2023/01/01 00:23:15;;;;;;;3.35;2.30;;;;;;;9.57;100.00;93371.03;2081428;28;20387;-86
2023/01/01 00:24:16;;;;;;;4.75;2.38;;;;;;;9.36;100.00;93374.00;2097425;28;20028;-84
2023/01/01 00:25:17;;;;;;;3.42;2.20;;;;;;;9.41;100.00;93373.53;2105099;28;20032;-84
2023/01/01 00:26:18;;;;;;;3.67;2.33;;;;;;;9.59;100.00;93367.97;2097710;28;20021;-83
2023/01/01 00:27:19;;;;;;;5.22;2.70;;;;;;;9.39;100.00;93364.41;2105589;28;20023;-82
2023/01/01 00:28:20;;;;;;;5.22;2.30;;;;;;;9.44;100.00;93363.97;2097320;28;20078;-83
2023/01/01 00:29:21;;;;;;;3.97;2.28;;;;;;;9.56;100.00;93372.19;2092060;28;20031;-83
2023/01/01 00:30:23;;;;;;;4.35;2.72;;;;;;;9.43;100.00;93371.22;2100714;28;20027;-83
2023/01/01 00:31:24;;;;;;;4.10;2.50;;;;;;;9.47;100.00;93374.59;2094588;28;20028;-83
2023/01/01 00:32:25;;;;;;;3.17;1.98;;;;;;;9.70;100.00;93375.81;2097133;28;20111;-84
2023/01/01 00:33:26;;;;;;;3.70;2.28;;;;;;;9.58;100.00;93361.88;2096511;28;20024;-83
2023/01/01 00:34:27;;;;;;;2.88;2.40;;;;;;;9.40;100.00;93365.94;2105228;28;20035;-84
2023/01/01 00:35:28;;;;;;;3.10;2.38;;;;;;;9.29;100.00;93368.72;2105361;28;20016;-82
2023/01/01 00:36:35;;;;;;;5.47;3.50;;;;;;;9.12;100.00;93367.03;2098492;28;20042;-84
2023/01/01 00:37:36;;;;;;;5.63;3.00;;;;;;;9.00;100.00;93374.44;2097696;28;20115;-84
2023/01/01 00:38:38;;;;;;;6.30;3.83;;;;;;;8.88;100.00;93366.94;2096936;28;20106;-83
2023/01/01 00:39:39;;;;;;;5.43;3.10;;;;;;;8.70;100.00;93363.72;2102051;28;20119;-85
2023/01/01 00:40:40;;;;;;;12.70;7.80;;;;;;;8.58;100.00;93376.38;2111280;28;20023;-84
2023/01/01 00:41:41;;;;;;;24.85;17.15;;;;;;;8.49;100.00;93372.69;2105073;28;20047;-84
2023/01/01 00:42:42;;;;;;;34.47;22.58;;;;;;;8.35;100.00;93378.13;2101588;28;20043;-84
2023/01/01 00:43:43;;;;;;;63.80;41.70;;;;;;;8.08;100.00;93376.06;2080506;28;20030;-84
2023/01/01 00:44:45;;;;;;;67.57;45.90;;;;;;;8.02;100.00;93374.97;2080551;28;20304;-84
2023/01/01 00:45:47;;;;;;;76.13;49.72;;;;;;;7.92;100.00;93376.56;2088251;28;20859;-84
2023/01/01 00:46:48;;;;;;;80.03;54.38;;;;;;;7.90;100.00;93372.75;2097095;28;20518;-84
2023/01/01 00:47:51;;;;;;;79.45;55.05;;;;;;;7.68;100.00;93386.25;2088850;28;20032;-84
2023/01/01 00:48:53;;;;;;;101.05;64.20;;;;;;;7.63;100.00;93372.56;2099039;27;20054;-85
2023/01/01 00:49:54;;;;;;;98.63;65.72;;;;;;;7.61;100.00;93377.53;2099908;28;20107;-85
2023/01/01 00:50:55;;;;;;;104.53;66.25;;;;;;;7.90;100.00;93375.41;2110646;28;20789;-84
2023/01/01 00:51:56;;;;;;;105.88;69.55;;;;;;;7.83;100.00;93370.94;2116520;27;20015;-83
2023/01/01 00:52:57;;;;;;;107.35;68.10;;;;;;;7.61;100.00;93380.19;2096969;28;20021;-84
2023/01/01 00:53:58;;;;;;;105.75;69.57;;;;;;;7.55;100.00;93380.63;2108661;28;20101;-83
2023/01/01 00:54:59;;;;;;;106.22;70.40;;;;;;;7.42;100.00;93379.56;2105042;28;20133;-84
2023/01/01 00:56:00;;;;;;;104.65;70.43;;;;;;;7.38;100.00;93376.16;2105042;28;20469;-84
2023/01/01 00:57:01;;;;;;;114.20;72.57;;;;;;;7.37;100.00;93381.84;2100837;28;20027;-84
2023/01/01 00:58:02;;;;;;;104.45;71.93;;;;;;;7.31;100.00;93376.94;2104240;28;20101;-83
2023/01/01 00:59:03;;;;;;;109.75;71.60;;;;;;;7.23;100.00;93385.34;2101241;28;20043;-83
2023/01/01 01:00:05;;;;;;;110.25;74.53;;;;;;;7.22;100.00;93383.81;2094440;28;20050;-84
2023/01/01 01:01:06;;;;;;;106.32;72.85;;;;;;;7.09;100.00;93380.84;2092607;28;20032;-84
2023/01/01 01:02:10;;;;;;;106.97;70.45;;;;;;;7.02;100.00;93386.97;2097175;28;20119;-85
2023/01/01 01:03:26;;;;;;;114.90;74.30;;;;;;;6.90;100.00;93384.72;2095638;28;20073;-84
2023/01/01 01:04:27;;;;;;;114.30;73.10;;;;;;;6.75;100.00;93381.34;2109302;27;20090;-85
2023/01/01 01:05:28;;;;;;;108.97;74.55;;;;;;;6.72;100.00;93386.69;2122873;27;20019;-85
2023/01/01 01:06:29;;;;;;;112.78;75.13;;;;;;;6.78;100.00;93385.88;2120794;27;20023;-84
2023/01/01 01:07:37;;;;;;;115.03;76.90;;;;;;;6.72;100.00;93382.13;2105997;28;20033;-83
2023/01/01 01:08:40;;;;;;;122.03;77.90;;;;;;;6.61;100.00;93384.03;2099534;28;20048;-85
2023/01/01 01:09:41;;;;;;;120.28;79.07;;;;;;;6.62;100.00;93380.22;2097813;28;20024;-83
2023/01/01 01:10:42;;;;;;;120.47;78.38;;;;;;;6.71;100.00;93380.59;2097496;28;20021;-84
2023/01/01 01:11:44;;;;;;;117.72;74.15;;;;;;;6.94;100.00;93377.50;2114000;28;20092;-84
2023/01/01 01:12:45;;;;;;;118.47;77.75;;;;;;;6.76;100.00;93382.09;2117974;27;20055;-85
2023/01/01 01:13:48;;;;;;;124.68;76.93;;;;;;;6.76;100.00;93385.53;2101585;28;20085;-85
2023/01/01 01:14:49;;;;;;;124.57;79.93;;;;;;;6.64;100.00;93377.97;2106512;28;20553;-84
2023/01/01 01:15:50;;;;;;;132.57;82.10;;;;;;;6.61;100.00;93389.34;2106182;28;20016;-85
2023/01/01 01:16:51;;;;;;;121.18;80.65;;;;;;;6.61;100.00;93377.97;2105098;28;20035;-84
2023/01/01 01:17:52;;;;;;;124.97;84.03;;;;;;;6.48;100.00;93381.03;2088809;28;20733;-84
2023/01/01 01:18:56;;;;;;;131.45;81.97;;;;;;;6.39;100.00;93387.88;2089025;28;20532;-84
2023/01/01 01:19:57;;;;;;;125.65;85.32;;;;;;;6.25;100.00;93386.75;2098037;28;20112;-84
2023/01/01 01:20:58;;;;;;;126.43;85.30;;;;;;;6.24;100.00;93384.50;2100949;28;20602;-84
2023/01/01 01:21:59;;;;;;;131.15;86.00;;;;;;;6.23;100.00;93383.75;2106087;27;20030;-84
2023/01/01 01:23:00;;;;;;;127.38;85.53;;;;;;;6.32;100.00;93393.94;2115880;27;20392;-84
2023/01/01 01:24:02;;;;;;;128.45;84.60;;;;;;;6.39;100.00;93391.28;2089114;28;20051;-84
2023/01/01 01:25:04;;;;;;;125.70;83.80;;;;;;;6.36;100.00;93394.69;2081325;28;20395;-83
2023/01/01 01:26:18;;;;;;;129.00;83.72;;;;;;;6.24;100.00;93392.47;2089063;28;20446;-84
2023/01/01 01:27:19;;;;;;;134.38;85.25;;;;;;;6.18;100.00;93397.38;2092958;28;20469;-84
2023/01/01 01:28:21;;;;;;;126.05;82.07;;;;;;;6.23;100.00;93401.53;2089184;28;20028;-84
2023/01/01 01:29:22;;;;;;;135.95;88.07;;;;;;;6.29;100.00;93400.03;2084404;28;20151;-84
2023/01/01 01:30:23;;;;;;;133.45;86.53;;;;;;;6.22;100.00;93394.72;2080591;28;20025;-84
2023/01/01 01:31:28;;;;;;;132.77;89.00;;;;;;;6.16;100.00;93409.53;2089134;28;20025;-84
2023/01/01 01:32:28;;;;;;;134.52;86.80;;;;;;;6.09;100.00;93412.16;2106156;28;20024;-84
2023/01/01 01:33:30;;;;;;;140.40;88.32;;;;;;;6.13;100.00;93412.94;2096998;28;20374;-84
2023/01/01 01:34:31;;;;;;;137.10;87.57;;;;;;;6.06;100.00;93408.38;2088836;28;20028;-85
2023/01/01 01:35:32;;;;;;;130.95;84.55;;;;;;;6.02;100.00;93411.03;2089002;28;20501;-84
2023/01/01 01:36:33;;;;;;;138.65;88.53;;;;;;;6.16;100.00;93422.78;2080672;28;20413;-84
2023/01/01 01:37:34;;;;;;;138.90;88.22;;;;;;;6.04;100.00;93416.72;2089358;28;20025;-84
2023/01/01 01:38:35;;;;;;;136.32;89.32;;;;;;;5.98;100.00;93412.94;2105434;28;20533;-84
2023/01/01 01:39:36;;;;;;;134.20;91.32;;;;;;;5.87;100.00;93414.78;2114038;28;20027;-85
2023/01/01 01:40:41;;;;;;;139.95;90.60;;;;;;;5.86;100.00;93413.25;2097349;28;20638;-84
2023/01/01 01:41:42;;;;;;;136.32;90.65;;;;;;;5.83;100.00;93414.00;2097866;28;20021;-84
2023/01/01 01:42:48;;;;;;;135.10;85.90;;;;;;;5.80;100.00;93417.44;2097394;28;20047;-84
2023/01/01 01:44:00;;;;;;;140.52;90.55;;;;;;;5.74;100.00;93419.69;2089712;28;20040;-84
2023/01/01 01:45:04;;;;;;;138.30;87.43;;;;;;;5.67;100.00;93413.63;2099152;28;20074;-83
2023/01/01 01:46:09;;;;;;;130.02;89.13;;;;;;;5.65;100.00;93411.34;2094272;28;20055;-84
2023/01/01 01:47:49;;;;;;;135.05;85.97;;;;;;;5.51;100.00;93408.66;2089748;28;20486;-84
2023/01/01 01:48:54;;;;;;;134.32;87.80;;;;;;;5.52;100.00;93418.88;2091499;28;20652;-84
2023/01/01 01:50:02;;;;;;;135.25;84.47;;;;;;;5.53;100.00;93407.16;2092106;27;20037;-85
2023/01/01 01:51:04;;;;;;;128.50;80.18;;;;;;;5.76;100.00;93411.38;2097421;28;20494;-85
2023/01/01 01:52:05;;;;;;;135.82;87.15;;;;;;;5.68;100.00;93409.84;2081263;28;20537;-84
2023/01/01 01:53:19;;;;;;;127.43;85.90;;;;;;;5.56;100.00;93417.00;2096549;28;20028;-84
2023/01/01 01:54:23;;;;;;;119.00;76.50;;;;;;;5.52;100.00;93412.84;2098830;28;20999;-84
2023/01/01 01:55:28;;;;;;;126.63;78.47;;;;;;;5.47;100.00;93416.63;2091176;28;20033;-85
2023/01/01 01:56:41;;;;;;;119.03;78.97;;;;;;;5.43;100.00;93420.38;2098212;28;20109;-83
2023/01/01 01:57:43;;;;;;;125.38;81.60;;;;;;;5.37;100.00;93421.91;2109479;27;20024;-84
2023/01/01 01:58:44;;;;;;;124.03;80.60;;;;;;;5.28;100.00;93415.06;2105316;28;20027;-84
2023/01/01 01:59:52;;;;;;;120.25;79.38;;;;;;;5.23;100.00;93415.41;2105577;28;20032;-84
2023/01/01 02:00:54;;;;;;;127.05;82.15;;;;;;;5.25;100.00;93407.84;2106404;28;20020;-84
2023/01/01 02:01:59;;;;;;;127.00;80.80;;;;;;;5.22;100.00;93418.44;2104990;28;20028;-85
2023/01/01 02:03:32;;;;;;;113.53;76.15;;;;;;;5.13;100.00;93420.66;2105511;28;20343;-84
2023/01/01 02:04:34;;;;;;;124.60;72.47;;;;;;;5.10;100.00;93419.53;2092943;28;20036;-84
2023/01/01 02:05:36;;;;;;;107.43;70.15;;;;;;;5.12;100.00;93432.41;2088638;28;20432;-84
2023/01/01 02:06:43;;;;;;;108.10;67.82;;;;;;;5.18;100.00;93415.00;2081927;28;20120;-84
2023/01/01 02:07:44;;;;;;;120.72;77.28;;;;;;;5.13;100.00;93421.41;2089710;28;20020;-83
2023/01/01 02:08:47;;;;;;;120.82;76.65;;;;;;;5.01;100.00;93427.06;2096905;28;20074;-83
2023/01/01 02:09:49;;;;;;;120.20;74.30;;;;;;;5.32;100.00;93428.31;2106196;28;20028;-84
2023/01/01 02:10:51;;;;;;;118.93;75.75;;;;;;;5.21;100.00;93424.88;2105504;28;20019;-84
2023/01/01 02:11:52;;;;;;;114.43;76.88;;;;;;;5.05;100.00;93423.31;2097053;28;20134;-84
2023/01/01 02:12:53;;;;;;;120.05;77.05;;;;;;;5.00;100.00;93418.38;2105607;28;20028;-84
2023/01/01 02:13:55;;;;;;;109.00;68.50;;;;;;;4.93;100.00;93420.97;2104266;28;20027;-84
2023/01/01 02:14:57;;;;;;;117.53;73.35;;;;;;;4.83;100.00;93413.75;2097142;28;20032;-84
2023/01/01 02:28:26;;;;;;;;;;;;;;;4.32;100.00;93419.13;2585987;22;20505;-86
2023/01/01 02:30:02;;;;;;;106.35;67.00;;;;;;;4.43;100.00;93425.22;2557877;23;19915;-84
2023/01/01 02:32:08;;;;;;;105.25;65.60;;;;;;;4.44;100.00;93416.19;2550740;23;20015;-83
2023/01/01 02:33:20;;;;;;;103.68;65.55;;;;;;;4.40;100.00;93433.94;2571665;23;20350;-82
2023/01/01 02:34:29;;;;;;;97.40;61.42;;;;;;;4.39;100.00;93430.53;2549816;23;20005;-80
2023/01/01 02:36:01;;;;;;;108.60;68.40;;;;;;;4.39;100.00;93427.88;2539803;23;20006;-85
2023/01/01 02:37:19;;;;;;;115.05;72.47;;;;;;;4.37;100.00;93424.81;2549362;23;20023;-85
2023/01/01 02:38:29;;;;;;;105.85;67.03;;;;;;;4.40;100.00;93431.28;2551749;23;19997;-82
2023/01/01 02:39:44;;;;;;;114.45;74.25;;;;;;;4.54;100.00;93426.06;2538518;23;20001;-85
2023/01/01 02:41:24;;;;;;;98.20;65.72;;;;;;;4.40;100.00;93433.94;2542079;23;20006;-83
2023/01/01 02:44:20;;;;;;;100.88;63.47;;;;;;;4.27;100.00;93434.22;2568554;23;20004;-88
2023/01/01 02:45:22;;;;;;;110.28;71.07;;;;;;;4.28;100.00;93429.69;2551170;23;20017;-82
2023/01/01 02:46:36;;;;;;;105.57;69.22;;;;;;;4.38;100.00;93430.88;2549770;23;20009;-83
2023/01/01 02:47:44;;;;;;;106.80;70.57;;;;;;;4.13;100.00;93423.53;2542643;23;20065;-84
2023/01/01 02:49:00;;;;;;;108.40;72.30;;;;;;;4.18;100.00;93427.72;2550536;23;20012;-84
2023/01/01 02:50:34;;;;;;;100.13;64.78;;;;;;;4.28;100.00;93425.16;2567514;23;20000;-82
2023/01/01 02:51:51;;;;;;;106.65;66.88;;;;;;;4.24;100.00;93426.25;2553796;23;20102;-85
2023/01/01 02:53:19;;;;;;;96.78;63.67;;;;;;;4.31;100.00;93431.59;2552152;23;20016;-86
2023/01/01 02:54:56;;;;;;;97.55;63.25;;;;;;;4.18;100.00;93431.13;2550734;23;20012;-85
2023/01/01 02:56:15;;;;;;;101.72;64.97;;;;;;;4.06;100.00;93433.28;2540810;23;20009;-83
2023/01/01 03:00:27;;;;;;;99.35;64.90;;;;;;;4.12;100.00;93431.81;2487416;23;20027;-83
2023/01/01 03:01:52;;;;;;;97.85;62.33;;;;;;;4.22;100.00;93441.75;2544647;23;20035;-85
2023/01/01 03:04:13;;;;;;;92.13;61.25;;;;;;;4.37;100.00;93446.00;2569423;23;20237;-84
2023/01/01 03:07:48;;;;;;;88.32;59.40;;;;;;;4.27;100.00;93439.50;2569618;23;20071;-84
2023/01/01 03:09:17;;;;;;;90.30;61.03;;;;;;;4.20;100.00;93444.75;2560680;23;20020;-83
2023/01/01 03:11:12;;;;;;;79.20;53.70;;;;;;;4.35;100.00;93439.56;2567404;23;20388;-85
2023/01/01 03:13:14;;;;;;;82.55;57.00;;;;;;;4.23;100.00;93437.97;2511803;23;20011;-85
2023/01/01 03:14:32;;;;;;;85.60;56.78;;;;;;;4.02;100.00;93427.97;2572509;23;20004;-82
2023/01/01 03:15:50;;;;;;;81.70;55.47;;;;;;;4.41;100.00;93446.03;2551045;23;20035;-82
2023/01/01 03:17:25;;;;;;;89.55;59.53;;;;;;;4.22;100.00;93436.44;2546932;23;20005;-83
2023/01/01 03:19:09;;;;;;;87.13;57.45;;;;;;;4.09;100.00;93440.50;2552780;23;20005;-86
2023/01/01 03:20:35;;;;;;;73.55;54.13;;;;;;;4.06;100.00;93435.94;2551053;23;20009;-83
2023/01/01 03:21:51;;;;;;;82.32;56.05;;;;;;;4.09;100.00;93432.56;2563364;23;20091;-85
2023/01/01 03:23:49;;;;;;;75.28;53.15;;;;;;;3.79;100.00;93426.28;2569394;23;20306;-85
2023/01/01 03:25:22;;;;;;;83.20;54.80;;;;;;;3.88;100.00;93423.34;2556878;23;20004;-85
2023/01/01 03:26:40;;;;;;;85.00;52.90;;;;;;;3.90;100.00;93429.00;2548369;23;20008;-82
2023/01/01 03:28:15;;;;;;;81.22;53.80;;;;;;;3.84;100.00;93417.25;2542955;23;20356;-84
2023/01/01 03:29:27;;;;;;;83.97;56.40;;;;;;;4.16;100.00;93414.09;2547254;23;20031;-84
2023/01/01 03:30:42;;;;;;;86.05;56.58;;;;;;;4.02;100.00;93409.47;2539341;23;20058;-83
2023/01/01 03:31:46;;;;;;;;;;;;;;;3.96;100.00;93419.63;2538875;23;20010;-84
2023/01/01 03:33:26;;;;;;;80.38;50.28;;;;;;;3.97;100.00;93423.78;2548124;23;19952;-85
2023/01/01 03:34:56;;;;;;;73.85;49.65;;;;;;;4.19;100.00;93421.31;2557985;23;20009;-83
2023/01/01 03:36:12;;;;;;;82.13;51.30;;;;;;;4.13;100.00;93420.91;2550091;23;20012;-86
2023/01/01 03:37:37;;;;;;;79.35;49.67;;;;;;;4.13;100.00;93417.50;2539384;23;20010;-85
2023/01/01 03:40:36;;;;;;;75.18;49.78;;;;;;;4.09;100.00;93422.75;2554727;23;20062;-84
2023/01/01 03:42:25;;;;;;;74.95;48.10;;;;;;;4.08;100.00;93425.75;2550357;23;20009;-83
2023/01/01 03:44:02;;;;;;;76.70;47.88;;;;;;;3.93;100.00;93425.63;2554685;23;20015;-84
2023/01/01 03:45:46;;;;;;;70.35;44.38;;;;;;;3.88;100.00;93425.97;2548614;23;20013;-85
2023/01/01 03:47:08;;;;;;;68.35;40.33;;;;;;;4.08;100.00;93425.75;2569328;23;20016;-80
2023/01/01 03:48:21;;;;;;;67.60;44.15;;;;;;;3.96;100.00;93424.91;2550720;23;20005;-82
2023/01/01 03:49:32;;;;;;;72.97;44.67;;;;;;;3.78;100.00;93419.47;2539576;23;20013;-86
2023/01/01 03:51:09;;;;;;;65.88;42.10;;;;;;;3.89;100.00;93419.56;2536342;23;20429;-82
2023/01/01 03:52:41;;;;;;;67.60;43.15;;;;;;;3.85;100.00;93425.94;2547570;23;20008;-85
2023/01/01 03:53:57;;;;;;;64.15;39.67;;;;;;;3.77;100.00;93430.41;2546872;23;20011;-85
2023/01/01 03:55:35;;;;;;;58.60;39.90;;;;;;;3.87;100.00;93424.47;2542052;23;20002;-85
2023/01/01 03:57:14;;;;;;;61.65;39.95;;;;;;;3.95;100.00;93422.63;2548054;23;20024;-83
2023/01/01 03:58:23;;;;;;;58.22;36.50;;;;;;;3.91;100.00;93421.84;2561366;23;20009;-82
2023/01/01 03:59:34;;;;;;;68.57;41.15;;;;;;;3.94;100.00;93426.41;2549536;23;20039;-85
2023/01/01 04:00:49;;;;;;;58.80;35.92;;;;;;;3.89;100.00;93421.44;2545090;23;20009;-81
2023/01/01 04:02:16;;;;;;;59.30;36.53;;;;;;;3.89;100.00;93416.91;2567873;23;20004;-80
2023/01/01 04:03:24;;;;;;;65.68;38.85;;;;;;;3.83;100.00;93420.28;2566261;23;20020;-81
2023/01/01 04:04:26;;;;;;;61.22;39.35;;;;;;;3.87;100.00;93427.09;2556731;23;20008;-82
2023/01/01 04:05:46;;;;;;;60.50;38.90;;;;;;;4.03;100.00;93419.66;2543598;23;20002;-83
2023/01/01 04:06:57;;;;;;;57.45;35.83;;;;;;;4.02;100.00;93415.50;2558733;23;19985;-82
2023/01/01 04:08:26;;;;;;;59.35;35.72;;;;;;;3.97;100.00;93418.50;2555750;23;20101;-83
2023/01/01 04:09:34;;;;;;;54.75;33.88;;;;;;;3.97;100.00;93409.81;2559534;23;20016;-84
2023/01/01 04:10:58;;;;;;;54.08;33.60;;;;;;;3.90;100.00;93415.78;2540660;23;20088;-83
2023/01/01 04:12:04;;;;;;;51.92;34.20;;;;;;;3.81;100.00;93417.22;2541678;23;20001;-84
2023/01/01 04:13:06;;;;;;;57.17;33.28;;;;;;;3.77;100.00;93428.50;2535735;23;20017;-82
2023/01/01 04:14:16;;;;;;;48.83;33.00;;;;;;;3.85;100.00;93418.75;2546747;23;20088;-83
2023/01/01 04:15:20;;;;;;;49.53;33.25;;;;;;;3.90;100.00;93418.44;2548539;23;20479;-85
2023/01/01 04:16:40;;;;;;;47.63;33.20;;;;;;;3.87;100.00;93421.81;2547866;23;20005;-85
2023/01/01 04:17:58;;;;;;;48.50;32.35;;;;;;;3.83;100.00;93423.66;2541643;23;20088;-85
2023/01/01 04:19:07;;;;;;;54.10;33.28;;;;;;;3.83;100.00;93417.63;2539959;23;20037;-84
2023/01/01 04:20:13;;;;;;;51.47;33.42;;;;;;;3.76;100.00;93421.72;2537224;23;20014;-83
2023/01/01 04:21:20;;;;;;;49.50;31.55;;;;;;;3.75;100.00;93419.44;2546937;23;20084;-85
2023/01/01 04:22:35;;;;;;;56.20;33.28;;;;;;;3.62;100.00;93424.22;2546989;23;20334;-84
2023/01/01 04:23:40;;;;;;;49.63;30.95;;;;;;;3.69;100.00;93416.38;2549654;23;20073;-82
2023/01/01 04:24:52;;;;;;;51.35;31.58;;;;;;;3.69;100.00;93416.38;2536083;23;20009;-83
2023/01/01 04:26:01;;;;;;;49.88;31.17;;;;;;;3.56;100.00;93423.06;2539837;23;20005;-82
2023/01/01 04:27:06;;;;;;;52.22;31.27;;;;;;;3.97;100.00;93407.16;2547115;23;20328;-85
2023/01/01 04:28:25;;;;;;;49.88;32.83;;;;;;;3.94;100.00;93416.56;2534595;23;20021;-84
2023/01/01 04:29:30;;;;;;;49.40;31.92;;;;;;;3.93;100.00;93416.94;2541813;23;20021;-82
2023/01/01 04:30:48;;;;;;;50.58;33.05;;;;;;;3.90;100.00;93415.03;2545648;23;20049;-84
2023/01/01 04:32:03;;;;;;;52.58;32.53;;;;;;;3.89;100.00;93418.81;2540283;23;20352;-82
2023/01/01 04:33:20;;;;;;;49.00;31.13;;;;;;;3.90;100.00;93415.78;2540926;23;20068;-86
2023/01/01 04:34:28;;;;;;;53.28;31.77;;;;;;;3.79;100.00;93420.25;2538937;23;20136;-85
2023/01/01 04:35:41;;;;;;;52.33;30.73;;;;;;;3.73;100.00;93417.16;2536882;23;20082;-84
2023/01/01 04:36:54;;;;;;;51.75;31.23;;;;;;;3.74;100.00;93418.69;2538543;23;19998;-83
2023/01/01 04:38:24;;;;;;;46.90;30.13;;;;;;;3.75;100.00;93422.09;2537049;23;20426;-83
2023/01/01 04:39:29;;;;;;;47.40;29.00;;;;;;;3.74;100.00;93417.94;2551000;23;20005;-84
2023/01/01 04:40:39;;;;;;;50.88;29.65;;;;;;;3.79;100.00;93420.25;2535474;23;20005;-84
2023/01/01 04:41:41;;;;;;;49.92;29.42;;;;;;;3.78;100.00;93426.66;2547332;23;20006;-85
2023/01/01 04:42:54;;;;;;;44.75;28.52;;;;;;;3.85;100.00;93416.13;2546324;23;20001;-82
2023/01/01 04:44:05;;;;;;;48.67;30.20;;;;;;;4.00;100.00;93419.66;2538061;23;20006;-85
2023/01/01 04:45:11;;;;;;;50.30;29.30;;;;;;;3.89;100.00;93410.88;2536219;23;20009;-84
2023/01/01 04:46:13;;;;;;;45.13;27.33;;;;;;;3.82;100.00;93421.38;2534141;23;20010;-85
2023/01/01 04:47:29;;;;;;;47.25;28.23;;;;;;;3.77;100.00;93427.75;2533868;23;20317;-83
2023/01/01 04:48:50;;;;;;;41.90;25.17;;;;;;;3.82;100.00;93434.59;2541633;23;20115;-84
2023/01/01 04:49:55;;;;;;;45.33;25.92;;;;;;;3.87;100.00;93427.09;2539797;23;20005;-83
2023/01/01 04:51:03;;;;;;;45.40;25.98;;;;;;;3.99;100.00;93428.69;2546066;23;20013;-82
2023/01/01 04:52:07;;;;;;;48.13;27.83;;;;;;;3.97;100.00;93426.44;2535736;23;20010;-85
2023/01/01 04:53:21;;;;;;;46.72;27.08;;;;;;;3.89;100.00;93426.72;2535334;23;20437;-83
2023/01/01 04:54:34;;;;;;;45.08;26.30;;;;;;;4.02;100.00;93425.31;2540070;23;20441;-85
2023/01/01 04:55:45;;;;;;;41.47;24.38;;;;;;;4.57;100.00;93427.22;2525488;23;20197;-83
2023/01/01 04:56:52;;;;;;;37.95;24.50;;;;;;;4.40;100.00;93429.41;2528436;23;20010;-85
2023/01/01 04:57:57;;;;;;;48.17;26.40;;;;;;;4.21;100.00;93425.09;2535562;23;20096;-85
2023/01/01 04:58:59;;;;;;;44.17;25.80;;;;;;;4.14;100.00;93430.34;2534545;23;20017;-84
2023/01/01 05:00:10;;;;;;;42.65;25.95;;;;;;;4.38;100.00;93421.03;2533531;23;20009;-85
2023/01/01 05:01:24;;;;;;;42.67;26.63;;;;;;;4.17;100.00;93421.69;2536793;23;20377;-84
2023/01/01 05:02:32;;;;;;;42.70;27.05;;;;;;;4.11;100.00;93417.09;2538778;23;20036;-82
2023/01/01 05:03:34;;;;;;;49.97;27.77;;;;;;;4.02;100.00;93418.16;2535500;23;20037;-84
2023/01/01 05:04:38;;;;;;;47.90;27.65;;;;;;;4.04;100.00;93428.38;2533326;23;20047;-85
2023/01/01 05:05:40;;;;;;;43.10;26.48;;;;;;;4.07;100.00;93424.22;2534357;23;20049;-84
2023/01/01 05:06:45;;;;;;;46.83;27.58;;;;;;;4.18;100.00;93417.91;2545920;23;20029;-83
2023/01/01 05:07:52;;;;;;;45.67;27.10;;;;;;;4.10;100.00;93420.88;2547175;23;20009;-85
2023/01/01 05:08:58;;;;;;;46.17;26.58;;;;;;;4.29;100.00;93424.00;2545785;23;20023;-83
2023/01/01 05:10:00;;;;;;;46.95;26.48;;;;;;;4.32;100.00;93433.13;2535045;23;20024;-83
2023/01/01 05:11:08;;;;;;;46.38;27.20;;;;;;;4.24;100.00;93428.91;2533722;23;20065;-83
2023/01/01 05:12:13;;;;;;;44.08;27.30;;;;;;;4.17;100.00;93426.97;2548009;23;20005;-83
2023/01/01 05:13:20;;;;;;;46.65;26.85;;;;;;;4.14;100.00;93429.59;2546642;23;20009;-83
2023/01/01 05:14:22;;;;;;;51.88;27.52;;;;;;;4.10;100.00;93440.13;2535236;23;20010;-82
2023/01/01 05:15:27;;;;;;;44.50;26.27;;;;;;;4.12;100.00;93429.94;2545706;23;20013;-83
2023/01/01 05:16:31;;;;;;;44.08;26.77;;;;;;;4.05;100.00;93432.53;2546098;23;20081;-83
2023/01/01 05:17:40;;;;;;;45.85;26.33;;;;;;;3.98;100.00;93438.53;2537373;23;20063;-82
2023/01/01 05:18:45;;;;;;;44.28;25.83;;;;;;;4.15;100.00;93433.75;2534706;23;20037;-84
2023/01/01 05:19:46;;;;;;;48.20;26.52;;;;;;;4.02;100.00;93431.38;2534531;23;20074;-85
2023/01/01 05:20:48;;;;;;;42.47;26.05;;;;;;;4.01;100.00;93443.09;2544872;23;20433;-86
2023/01/01 05:21:53;;;;;;;51.92;25.98;;;;;;;4.08;100.00;93429.16;2533129;23;20066;-81
2023/01/01 05:23:08;;;;;;;47.70;24.35;;;;;;;4.42;100.00;93439.59;2535716;23;20437;-81
2023/01/01 05:24:12;;;;;;;41.55;23.65;;;;;;;4.17;100.00;93439.41;2537974;23;20053;-84
2023/01/01 05:25:17;;;;;;;41.10;22.50;;;;;;;4.03;100.00;93440.81;2548190;23;20044;-85
2023/01/01 05:26:23;;;;;;;78.32;23.75;;;;;;;3.97;100.00;93437.00;2545794;23;20005;-86
2023/01/01 05:27:24;;;;;;;68.90;23.00;;;;;;;4.00;100.00;93441.56;2534075;23;20085;-84
2023/01/01 05:28:28;;;;;;;61.35;23.73;;;;;;;3.97;100.00;93442.28;2533820;23;20021;-82
2023/01/01 05:29:31;;;;;;;50.47;23.33;;;;;;;3.92;100.00;93440.00;2533762;23;20361;-82
2023/01/01 05:30:32;;;;;;;38.08;22.35;;;;;;;3.88;100.00;93438.44;2533941;23;20910;-83
2023/01/01 05:31:36;;;;;;;57.80;23.58;;;;;;;3.82;100.00;93443.31;2534416;23;20045;-84
2023/01/01 05:32:40;;;;;;;48.83;24.10;;;;;;;3.82;100.00;93435.38;2533602;23;20014;-83
2023/01/01 05:33:42;;;;;;;63.78;23.45;;;;;;;3.80;100.00;93442.91;2534162;23;20374;-84
2023/01/01 05:34:45;;;;;;;62.20;22.58;;;;;;;3.90;100.00;93439.59;2533129;23;20013;-83
2023/01/01 05:35:57;;;;;;;49.42;23.13;;;;;;;3.76;100.00;93440.22;2546505;23;20015;-84
2023/01/01 05:37:20;;;;;;;40.08;23.88;;;;;;;3.75;100.00;93432.66;2537633;23;20033;-84
2023/01/01 05:38:40;;;;;;;34.38;20.63;;;;;;;3.96;100.00;93440.03;2552682;23;20480;-83
2023/01/01 05:39:44;;;;;;;68.38;23.25;;;;;;;3.87;100.00;93445.63;2549093;23;20009;-84
2023/01/01 05:41:15;;;;;;;75.05;23.60;;;;;;;3.81;100.00;93447.06;2548390;23;20014;-83
2023/01/01 05:42:27;;;;;;;176.20;23.80;;;;;;;3.71;100.00;93447.72;2542761;23;20071;-84
2023/01/01 05:43:33;;;;;;;45.53;21.50;;;;;;;3.69;100.00;93450.75;2547956;23;20005;-85